KGBK

Magnolia

Magnolia, Louisiana, USA
METAR KGBK 212055Z AUTO 04020G33KT 9SM SCT022 BKN028 OVC080 26/22 A3000 RMK A01
Observed Flight Rules
Oct-21 @ 20:55 UTC (41 minutes ago) Marginal Visual Flight Rules
Wind Visibility Clouds
40° at 20 knots
 Gusting to 33 knots
9 miles
  • Scattered at 2,200' AGL
  • Broken at 2,800' AGL
  • Overcast at 8,000' AGL
Temperatures Readings
Current 26°C / 79°F
Dewpoint 22°C / 72°F
Humidity 79%
Altimeter 30" Hg
Pressure 1016 hPa
Elevation 59
METAR KGBK 212055Z AUTO 04020G33KT 9SM SCT022 BKN028 OVC080 26/22 A3000 RMK A01
Observed Flight Rules
Oct-21 @ 20:55 UTC
(41 minutes ago)
MVFR
Wind Visibility
40° at 20 knots
 Gusting to 33 knots
9 miles
Clouds
  • Scattered at 2,200' AGL
  • Broken at 2,800' AGL
  • Overcast at 8,000' AGL
Temperature Dewpoint
26°C / 79°F 22°C / 72°F
Humidity Altimeter Pressure
79% 30" Hg 1016 hPa